Time;durP1;ratioP1;P1;durP2;ratioP2;P2;SDS_P1;SDS_P2;PMS_P1;PMS_P2;Temp;Humidity;BMP_temperature;BMP_pressure;BME280_temperature;BME280_humidity;BME280_pressure;Samples;Min_cycle;Max_cycle;Signal;HPM_P1;HPM_P2
2021/08/10 00:01:30;;;;;;;5.42;4.65;;;;;;;23.69;67.71;101363.32;1672362;83;20979;-78
2021/08/10 00:03:57;;;;;;;8.88;5.00;;;;;;;23.61;68.47;101363.36;1714244;83;21605;-80
2021/08/10 00:06:24;;;;;;;11.50;5.30;;;;;;;23.56;69.16;101369.64;1714447;83;21459;-76
2021/08/10 00:08:53;;;;;;;10.13;5.35;;;;;;;23.52;69.80;101368.31;1714713;83;21510;-78
2021/08/10 00:11:19;;;;;;;9.38;5.62;;;;;;;23.49;70.46;101372.62;1714307;83;21474;-78
2021/08/10 00:13:46;;;;;;;8.28;5.47;;;;;;;23.47;71.11;101371.97;1714157;83;21022;-75
2021/08/10 00:16:13;;;;;;;8.85;5.78;;;;;;;23.47;71.47;101371.97;1714152;83;22159;-77
2021/08/10 00:18:41;;;;;;;7.47;5.70;;;;;;;23.48;71.66;101369.66;1714253;83;21486;-78
2021/08/10 00:21:07;;;;;;;6.42;5.28;;;;;;;23.48;71.92;101374.96;1714043;82;20924;-78
2021/08/10 00:23:34;;;;;;;7.53;5.30;;;;;;;23.46;72.23;101363.69;1714105;83;21145;-78
2021/08/10 00:26:01;;;;;;;12.37;5.42;;;;;;;23.47;72.46;101370.65;1714039;83;21003;-76
2021/08/10 00:28:27;;;;;;;8.40;5.78;;;;;;;23.47;72.72;101366.67;1714144;83;21684;-76
2021/08/10 00:30:55;;;;;;;8.25;5.67;;;;;;;23.48;72.84;101367.02;1714163;83;21490;-77
2021/08/10 00:33:21;;;;;;;6.85;5.37;;;;;;;23.49;72.87;101369.97;1714278;83;21015;-78
2021/08/10 00:35:49;;;;;;;8.75;5.83;;;;;;;23.49;73.01;101367.32;1696106;83;21167;-75
2021/08/10 00:38:16;;;;;;;9.98;5.55;;;;;;;23.50;73.25;101375.12;1713974;83;22026;-77
2021/08/10 00:40:44;;;;;;;8.35;5.67;;;;;;;23.50;73.52;101373.80;1714060;83;20991;-81
2021/08/10 00:43:35;;;;;;;6.35;5.08;;;;;;;23.51;73.72;101382.08;1696065;83;21554;-77
2021/08/10 00:46:06;;;;;;;;;;;;;;;23.53;73.95;101381.89;1717155;83;20888;-76
2021/08/10 00:48:34;;;;;;;8.43;5.10;;;;;;;23.54;74.09;101379.59;1714398;83;21130;-77
2021/08/10 00:51:09;;;;;;;10.80;6.78;;;;;;;23.51;74.49;101380.75;1714353;83;20995;-77
2021/08/10 00:53:38;;;;;;;12.63;6.75;;;;;;;23.48;75.00;101382.91;1714117;83;20940;-78
2021/08/10 00:56:07;;;;;;;9.00;5.42;;;;;;;23.46;75.51;101383.55;1714251;83;21557;-77
2021/08/10 00:58:35;;;;;;;9.35;6.08;;;;;;;23.45;75.86;101373.97;1714508;83;20890;-74
2021/08/10 01:01:03;;;;;;;7.50;5.40;;;;;;;23.46;75.99;101372.47;1714294;83;21493;-74
2021/08/10 01:03:31;;;;;;;7.65;5.25;;;;;;;23.46;76.25;101367.16;1714411;83;21538;-81
2021/08/10 01:05:58;;;;;;;7.65;5.95;;;;;;;23.46;76.66;101366.33;1713935;83;21533;-76
2021/08/10 01:08:54;;;;;;;8.25;6.10;;;;;;;23.44;76.92;101361.22;1719809;83;21455;-75
2021/08/10 01:11:38;;;;;;;9.80;5.95;;;;;;;23.43;77.15;101353.42;1713952;83;20931;-74
2021/08/10 01:14:30;;;;;;;8.80;5.92;;;;;;;23.43;77.41;101359.55;1711681;83;22174;-76
2021/08/10 01:17:09;;;;;;;8.38;6.10;;;;;;;23.43;77.57;101354.26;1714141;83;20940;-74
2021/08/10 01:20:05;;;;;;;8.70;5.45;;;;;;;23.44;77.69;101353.27;1713962;82;21502;-75
2021/08/10 01:22:33;;;;;;;8.90;5.55;;;;;;;23.43;77.90;101354.75;1714046;83;20928;-76
2021/08/10 01:25:08;;;;;;;8.65;5.22;;;;;;;23.39;78.17;101348.92;1714294;83;20908;-78
2021/08/10 01:28:22;;;;;;;8.75;5.78;;;;;;;23.39;78.43;101348.13;1714189;83;21127;-76
2021/08/10 01:31:09;;;;;;;8.33;5.80;;;;;;;23.37;78.61;101344.80;1713915;83;21007;-76
2021/08/10 01:33:44;;;;;;;7.00;5.95;;;;;;;23.33;79.06;101344.30;1713292;83;20971;-76
2021/08/10 01:36:12;;;;;;;13.62;6.30;;;;;;;23.28;79.31;101340.02;1714051;83;20988;-74
2021/08/10 01:38:42;;;;;;;11.90;7.83;;;;;;;23.25;79.50;101336.38;1713782;83;20971;-75
2021/08/10 01:41:12;;;;;;;10.98;8.28;;;;;;;23.24;79.75;101347.12;1719682;83;21144;-73
2021/08/10 01:43:39;;;;;;;15.72;8.68;;;;;;;23.19;79.87;101343.17;1696019;83;20929;-77
2021/08/10 01:46:08;;;;;;;11.95;7.67;;;;;;;23.19;79.91;101344.99;1714104;83;20900;-74
2021/08/10 01:48:37;;;;;;;12.58;7.22;;;;;;;23.16;80.12;101347.97;1714001;83;20908;-73
2021/08/10 01:51:05;;;;;;;10.08;6.30;;;;;;;23.14;80.23;101352.09;1695921;83;21004;-75
2021/08/10 01:53:33;;;;;;;9.95;5.85;;;;;;;23.10;80.40;101350.77;1714221;83;22192;-74
2021/08/10 01:56:00;;;;;;;11.70;6.03;;;;;;;23.06;80.60;101358.73;1714090;83;21545;-75
2021/08/10 01:58:32;;;;;;;9.73;5.58;;;;;;;23.05;80.82;101354.42;1713965;83;21000;-79
2021/08/10 02:01:00;;;;;;;8.23;5.78;;;;;;;23.05;80.97;101350.45;1695801;83;21027;-76
2021/08/10 02:03:29;;;;;;;9.03;6.00;;;;;;;23.02;81.32;101358.72;1714125;83;21027;-79
2021/08/10 02:06:01;;;;;;;7.37;5.90;;;;;;;22.98;81.77;101358.70;1710382;82;21538;-76
2021/08/10 02:08:31;;;;;;;10.28;4.97;;;;;;;22.94;82.05;101349.95;1714245;83;21012;-74
2021/08/10 02:10:58;;;;;;;7.80;5.50;;;;;;;22.91;82.33;101348.44;1714374;83;21539;-76
2021/08/10 02:13:27;;;;;;;8.58;5.53;;;;;;;22.88;82.62;101354.59;1714479;83;21070;-75
2021/08/10 02:15:54;;;;;;;10.48;5.72;;;;;;;22.86;82.90;101357.38;1714158;83;20876;-74
2021/08/10 02:18:22;;;;;;;10.45;5.60;;;;;;;22.86;83.07;101349.93;1714123;83;22024;-79
2021/08/10 02:20:58;;;;;;;10.95;5.70;;;;;;;22.85;83.23;101353.56;1712908;83;20959;-79
2021/08/10 02:23:25;;;;;;;12.10;6.17;;;;;;;22.84;83.37;101355.89;1714161;83;21031;-82
2021/08/10 02:25:52;;;;;;;9.98;6.05;;;;;;;22.82;83.50;101355.21;1714245;83;21003;-74
2021/08/10 02:28:18;;;;;;;7.62;5.62;;;;;;;22.80;83.60;101354.56;1714389;83;21545;-75
2021/08/10 02:30:49;;;;;;;7.60;5.45;;;;;;;22.77;83.77;101350.42;1714202;82;21091;-74
2021/08/10 02:33:17;;;;;;;8.20;5.65;;;;;;;22.76;83.93;101356.70;1695923;83;20888;-74
2021/08/10 02:35:46;;;;;;;9.33;5.42;;;;;;;22.74;84.08;101353.40;1719649;83;20956;-74
2021/08/10 02:38:16;;;;;;;6.17;5.58;;;;;;;22.73;84.13;101349.58;1714305;83;21494;-77
2021/08/10 02:40:46;;;;;;;10.88;5.85;;;;;;;22.72;84.25;101347.42;1673003;83;21600;-79
2021/08/10 02:43:12;;;;;;;9.10;5.53;;;;;;;22.73;84.33;101356.20;1714185;83;21795;-75
2021/08/10 02:45:40;;;;;;;8.38;5.03;;;;;;;22.71;84.60;101351.08;1695641;83;21542;-79
2021/08/10 02:48:07;;;;;;;13.83;6.37;;;;;;;22.67;84.85;101347.09;1714297;83;20996;-79
2021/08/10 02:50:36;;;;;;;8.05;5.62;;;;;;;22.66;85.04;101349.41;1714432;83;21612;-76
2021/08/10 02:53:05;;;;;;;14.68;5.00;;;;;;;22.65;85.14;101344.59;1714255;83;20955;-74
2021/08/10 02:55:34;;;;;;;10.63;5.50;;;;;;;22.66;85.26;101352.88;1714287;83;21131;-76
2021/08/10 02:58:25;;;;;;;8.73;5.40;;;;;;;22.67;85.39;101349.74;1695913;83;21063;-76
2021/08/10 03:01:01;;;;;;;10.80;5.27;;;;;;;22.69;85.39;101350.92;1714187;82;21003;-73
2021/08/10 03:03:30;;;;;;;6.40;5.33;;;;;;;22.65;85.48;101344.59;1714262;83;21001;-75
2021/08/10 03:05:59;;;;;;;12.47;5.50;;;;;;;22.69;85.72;101356.21;1714280;83;20998;-77
2021/08/10 03:08:33;;;;;;;11.65;5.42;;;;;;;22.66;85.85;101354.20;1695867;83;21154;-77
2021/08/10 03:11:01;;;;;;;6.65;5.33;;;;;;;22.65;86.02;101355.19;1714101;82;20951;-76
2021/08/10 03:13:35;;;;;;;7.62;4.97;;;;;;;22.66;86.11;101362.63;1714667;83;21099;-78
2021/08/10 03:16:05;;;;;;;7.67;5.12;;;;;;;;;;1713932;82;21008;-75
2021/08/10 03:18:35;;;;;;;6.12;5.10;;;;;;;22.65;86.27;101372.87;1714287;83;21019;-78
2021/08/10 03:21:04;;;;;;;10.40;5.75;;;;;;;22.64;86.30;101384.43;1714028;83;21158;-82
2021/08/10 03:23:34;;;;;;;10.00;5.28;;;;;;;22.61;86.50;101380.30;1690948;84;20932;-80
2021/08/10 03:26:02;;;;;;;7.92;5.22;;;;;;;22.61;86.57;101384.76;1708521;84;20928;-76
2021/08/10 03:28:29;;;;;;;12.25;4.97;;;;;;;22.60;86.70;101385.25;1708456;84;20971;-77
2021/08/10 03:30:57;;;;;;;8.55;5.40;;;;;;;22.58;86.86;101389.88;1708385;84;21101;-80
2021/08/10 03:33:26;;;;;;;12.33;5.75;;;;;;;22.55;87.08;101389.37;1708469;84;21807;-76
2021/08/10 03:35:53;;;;;;;6.80;5.15;;;;;;;22.50;87.44;101389.01;1708069;84;20979;-74
2021/08/10 03:38:20;;;;;;;7.55;5.08;;;;;;;22.47;87.74;101390.16;1708401;84;21031;-75
2021/08/10 03:40:49;;;;;;;11.38;5.70;;;;;;;22.44;87.93;101387.01;1688346;84;21035;-74
2021/08/10 03:43:16;;;;;;;12.40;5.10;;;;;;;22.41;88.03;101389.48;1708649;84;20940;-75
2021/08/10 03:45:43;;;;;;;8.58;5.45;;;;;;;22.41;88.26;101385.52;1708345;84;21973;-76
2021/08/10 03:48:11;;;;;;;11.70;5.70;;;;;;;22.41;88.35;101378.91;1708330;84;21035;-78
2021/08/10 03:50:39;;;;;;;10.23;5.25;;;;;;;22.45;88.31;101380.73;1708173;84;21424;-74
2021/08/10 03:53:07;;;;;;;9.25;5.53;;;;;;;22.49;88.25;101376.80;1708557;84;20892;-75
2021/08/10 03:55:36;;;;;;;8.40;5.58;;;;;;;22.55;88.10;101376.14;1688576;84;20933;-72
2021/08/10 03:58:06;;;;;;;7.42;5.05;;;;;;;22.59;87.83;101366.39;1710348;84;21217;-76
2021/08/10 04:00:36;;;;;;;7.42;5.05;;;;;;;22.64;87.60;101363.27;1710290;84;20913;-77
2021/08/10 04:03:05;;;;;;;10.43;5.70;;;;;;;22.71;87.50;101360.83;1709911;84;20956;-76
2021/08/10 04:05:39;;;;;;;9.60;5.25;;;;;;;22.75;87.34;101363.50;1711084;84;20964;-81
2021/08/10 04:08:11;;;;;;;7.05;4.72;;;;;;;22.78;87.17;101365.32;1689560;84;21483;-81
2021/08/10 04:10:44;;;;;;;7.33;4.95;;;;;;;22.82;86.95;101369.77;1708202;84;20964;-74
2021/08/10 04:13:12;;;;;;;7.12;5.30;;;;;;;22.87;86.67;101364.34;1708476;84;20952;-80
2021/08/10 04:15:45;;;;;;;8.98;5.22;;;;;;;22.88;86.45;101367.30;1708495;84;21613;-74
2021/08/10 04:18:15;;;;;;;9.45;5.33;;;;;;;22.92;86.26;101367.80;1708423;84;21028;-75
2021/08/10 04:20:50;;;;;;;6.80;5.25;;;;;;;22.94;85.91;101377.22;1708285;84;21128;-78
2021/08/10 04:23:17;;;;;;;8.50;4.90;;;;;;;22.97;85.73;101369.48;1710477;82;21133;-77
2021/08/10 04:25:46;;;;;;;7.17;5.00;;;;;;;22.99;85.55;101364.83;1714095;83;21032;-78
2021/08/10 04:28:13;;;;;;;6.70;5.30;;;;;;;23.01;85.46;101365.00;1714270;83;21008;-77
2021/08/10 04:30:41;;;;;;;8.13;4.62;;;;;;;23.04;85.38;101366.48;1714185;83;21486;-77
2021/08/10 04:33:09;;;;;;;7.45;5.83;;;;;;;23.05;85.20;101361.03;1714324;83;20952;-74
2021/08/10 04:35:37;;;;;;;12.50;5.97;;;;;;;23.08;84.93;101364.67;1714362;83;21831;-78
2021/08/10 04:38:04;;;;;;;10.45;5.40;;;;;;;23.11;85.14;101363.02;1714235;83;21562;-74
2021/08/10 04:40:31;;;;;;;8.48;5.10;;;;;;;23.16;84.87;101365.19;1714335;83;20995;-76
2021/08/10 04:43:10;;;;;;;10.63;4.87;;;;;;;23.22;84.50;101363.69;1714528;83;20987;-78
2021/08/10 04:45:40;;;;;;;6.92;4.92;;;;;;;23.27;84.01;101362.19;1714206;83;21494;-78
2021/08/10 04:48:10;;;;;;;10.78;4.83;;;;;;;23.34;83.82;101370.30;1714237;83;21115;-77
2021/08/10 04:50:40;;;;;;;6.95;5.20;;;;;;;23.41;83.21;101373.97;1714439;83;21056;-81
2021/08/10 04:53:09;;;;;;;9.58;4.67;;;;;;;23.46;82.98;101370.31;1714019;83;21026;-75
2021/08/10 04:55:36;;;;;;;8.08;5.10;;;;;;;23.53;82.53;101371.30;1714320;83;20912;-77
2021/08/10 04:58:04;;;;;;;7.72;4.92;;;;;;;23.60;82.29;101369.14;1714271;83;20857;-76
2021/08/10 05:00:32;;;;;;;11.90;5.35;;;;;;;23.65;81.51;101380.05;1714274;83;21754;-76
2021/08/10 05:02:59;;;;;;;5.22;4.58;;;;;;;23.70;81.17;101377.74;1714046;83;20943;-78
2021/08/10 05:05:28;;;;;;;9.50;5.15;;;;;;;23.74;80.84;101382.18;1714321;83;21435;-73
2021/08/10 05:07:59;;;;;;;5.30;4.80;;;;;;;23.77;80.68;101380.55;1714206;83;20943;-78
2021/08/10 05:10:28;;;;;;;8.05;4.87;;;;;;;23.80;80.53;101379.37;1714183;83;20956;-76
2021/08/10 05:12:57;;;;;;;11.75;5.47;;;;;;;23.85;80.52;101383.16;1714468;83;21159;-78
2021/08/10 05:15:27;;;;;;;8.00;4.60;;;;;;;23.90;80.12;101379.48;1714050;83;21403;-79
2021/08/10 05:17:54;;;;;;;7.47;5.00;;;;;;;23.94;79.83;101376.00;1714708;83;20976;-77
2021/08/10 05:20:23;;;;;;;6.28;4.90;;;;;;;24.00;79.67;101381.45;1714139;83;20983;-73
2021/08/10 05:22:52;;;;;;;5.60;4.47;;;;;;;24.08;78.99;101374.81;1713936;82;20987;-76
2021/08/10 05:25:18;;;;;;;15.03;4.85;;;;;;;24.15;78.37;101370.48;1710575;83;21147;-83
2021/08/10 05:27:46;;;;;;;12.90;4.97;;;;;;;24.21;77.92;101363.19;1690342;83;20940;-73
2021/08/10 05:30:15;;;;;;;11.78;5.12;;;;;;;24.26;77.66;101357.34;1710451;83;21533;-78
2021/08/10 05:32:44;;;;;;;8.45;5.20;;;;;;;24.30;77.23;101352.53;1711024;83;20952;-74
2021/08/10 05:35:11;;;;;;;14.07;5.25;;;;;;;24.35;76.97;101349.67;1709586;82;21114;-76
2021/08/10 05:37:39;;;;;;;9.95;5.05;;;;;;;24.41;76.60;101352.16;1710692;83;21105;-79
2021/08/10 05:40:08;;;;;;;9.73;5.30;;;;;;;24.46;76.35;101351.95;1710374;83;20933;-75
2021/08/10 05:42:36;;;;;;;10.10;5.00;;;;;;;24.52;75.80;101353.90;1710837;83;20935;-80
2021/08/10 05:45:07;;;;;;;10.07;4.87;;;;;;;24.60;75.38;101350.38;1710843;83;20947;-77
2021/08/10 05:47:34;;;;;;;10.40;4.97;;;;;;;24.66;75.16;101351.84;1710781;83;20951;-72
2021/08/10 05:50:04;;;;;;;10.28;5.12;;;;;;;24.74;74.43;101353.59;1710713;84;21827;-75
2021/08/10 05:52:32;;;;;;;7.47;4.65;;;;;;;24.83;74.19;101359.20;1710799;83;20956;-76
2021/08/10 05:54:59;;;;;;;7.85;4.55;;;;;;;24.93;73.68;101351.83;1710706;83;20971;-77
2021/08/10 05:57:27;;;;;;;5.33;4.50;;;;;;;25.01;73.46;101357.09;1734780;81;21032;-72
2021/08/10 05:59:57;;;;;;;9.63;5.20;;;;;;;25.08;72.88;101355.34;1737711;82;21085;-74
2021/08/10 06:02:33;;;;;;;6.42;4.40;;;;;;;25.15;72.58;101363.42;1740144;82;21466;-77
2021/08/10 06:05:13;;;;;;;5.22;4.05;;;;;;;25.21;71.64;101360.88;1719951;82;21600;-75
2021/08/10 06:07:43;;;;;;;7.33;4.58;;;;;;;25.30;71.15;101359.00;1729630;81;20905;-74
2021/08/10 06:10:28;;;;;;;11.40;4.35;;;;;;;25.36;70.77;101353.46;1739857;82;21059;-79
2021/08/10 06:13:00;;;;;;;6.97;4.67;;;;;;;25.42;70.92;101356.72;1740112;82;21553;-79
2021/08/10 06:15:45;;;;;;;6.42;4.67;;;;;;;25.51;70.56;101362.30;1740074;81;21127;-75
2021/08/10 06:18:16;;;;;;;8.05;4.30;;;;;;;25.58;70.31;101361.41;1740068;81;20916;-75
2021/08/10 06:20:58;;;;;;;6.28;4.50;;;;;;;25.67;69.47;101360.81;1739531;81;21418;-75
2021/08/10 06:23:30;;;;;;;9.53;4.87;;;;;;;25.75;69.23;101360.22;1741497;82;21443;-74
2021/08/10 06:26:09;;;;;;;8.68;4.45;;;;;;;25.82;68.98;101362.14;1744484;82;21006;-78
2021/08/10 06:28:36;;;;;;;8.68;4.42;;;;;;;25.90;68.66;101362.89;1746462;82;21116;-73
2021/08/10 06:31:04;;;;;;;8.38;4.55;;;;;;;26.01;68.05;101364.24;1746364;80;20939;-76
2021/08/10 06:33:32;;;;;;;9.18;5.03;;;;;;;26.06;67.46;101362.70;1746266;80;21062;-76
2021/08/10 06:36:01;;;;;;;6.33;5.08;;;;;;;26.12;67.62;101362.45;1746218;82;20915;-76
2021/08/10 06:38:29;;;;;;;8.75;4.60;;;;;;;26.18;66.83;101363.08;1746648;82;21616;-76
2021/08/10 06:40:58;;;;;;;9.23;4.30;;;;;;;26.24;67.01;101364.98;1746042;82;21977;-79
2021/08/10 06:43:25;;;;;;;10.75;5.12;;;;;;;26.29;66.32;101352.77;1746340;82;20921;-78
2021/08/10 06:45:54;;;;;;;6.33;4.22;;;;;;;26.36;66.16;101358.70;1743377;82;21526;-76
2021/08/10 06:48:22;;;;;;;8.45;5.05;;;;;;;26.46;64.90;101344.56;1746275;80;20983;-73
2021/08/10 06:50:49;;;;;;;5.58;4.67;;;;;;;26.54;64.81;101353.78;1746100;82;21561;-74
2021/08/10 06:53:17;;;;;;;9.93;4.80;;;;;;;26.61;64.54;101356.81;1746187;82;21155;-77
2021/08/10 06:55:46;;;;;;;6.87;4.60;;;;;;;26.69;64.11;101354.05;1744996;81;21502;-73
2021/08/10 06:58:14;;;;;;;6.92;4.58;;;;;;;26.77;63.66;101355.23;1746482;82;20908;-80
2021/08/10 07:00:41;;;;;;;12.53;4.55;;;;;;;26.89;62.94;101357.44;1746383;82;21051;-74
2021/08/10 07:03:08;;;;;;;7.83;4.20;;;;;;;26.95;62.75;101356.67;1746389;82;20920;-78
2021/08/10 07:05:36;;;;;;;6.67;4.97;;;;;;;27.00;62.73;101350.25;1746629;82;21288;-78
2021/08/10 07:08:04;;;;;;;5.72;4.78;;;;;;;27.09;62.17;101356.59;1746003;80;21081;-74
2021/08/10 07:10:33;;;;;;;7.28;4.20;;;;;;;27.18;61.64;101345.30;1746231;82;20976;-76
2021/08/10 07:13:00;;;;;;;6.30;4.37;;;;;;;27.27;61.05;101346.30;1746436;82;21452;-78
2021/08/10 07:15:27;;;;;;;6.12;3.87;;;;;;;27.32;60.39;101344.38;1746443;82;20884;-76
2021/08/10 07:17:55;;;;;;;6.28;4.08;;;;;;;27.37;59.98;101337.14;1745688;80;21692;-78
2021/08/10 07:20:25;;;;;;;11.18;4.08;;;;;;;27.42;59.85;101346.70;1746519;82;20960;-78
2021/08/10 07:22:51;;;;;;;8.25;4.05;;;;;;;27.48;58.35;101336.62;1746458;82;20936;-79
2021/08/10 07:25:20;;;;;;;6.83;3.83;;;;;;;27.55;59.03;101340.16;1741315;82;20941;-76
2021/08/10 07:27:47;;;;;;;4.83;4.00;;;;;;;27.62;58.38;101345.86;1740151;82;21067;-83
2021/08/10 07:30:16;;;;;;;6.80;4.20;;;;;;;27.68;58.28;101344.25;1740082;82;20984;-77
2021/08/10 07:32:45;;;;;;;4.85;3.58;;;;;;;27.76;58.45;101349.44;1719613;82;21095;-79
2021/08/10 07:35:12;;;;;;;5.67;3.58;;;;;;;27.84;57.45;101344.75;1740277;82;21518;-81
2021/08/10 07:37:44;;;;;;;4.78;3.40;;;;;;;27.90;56.58;101343.64;1740085;82;20984;-79
2021/08/10 07:40:12;;;;;;;6.87;5.65;;;;;;;27.91;56.38;101339.45;1740200;82;21555;-75
2021/08/10 07:42:41;;;;;;;4.10;3.70;;;;;;;27.97;56.51;101338.66;1739954;82;21110;-76
2021/08/10 07:45:10;;;;;;;10.15;3.92;;;;;;;28.01;56.84;101334.58;1739951;82;21460;-75
2021/08/10 07:47:37;;;;;;;8.28;3.65;;;;;;;28.08;57.06;101337.31;1740437;82;20927;-75
2021/08/10 07:50:04;;;;;;;9.80;3.40;;;;;;;28.18;56.76;101335.89;1740687;82;20928;-75
2021/08/10 07:52:31;;;;;;;6.42;4.00;;;;;;;28.25;55.42;101336.75;1740262;81;21502;-79
2021/08/10 07:54:58;;;;;;;4.65;3.65;;;;;;;28.30;55.10;101334.83;1740235;82;21492;-77
2021/08/10 07:57:25;;;;;;;3.98;3.30;;;;;;;28.32;54.49;101336.77;1718978;82;20999;-78
2021/08/10 07:59:52;;;;;;;5.65;3.92;;;;;;;28.35;54.64;101335.03;1739606;82;21079;-80
2021/08/10 08:02:21;;;;;;;9.15;3.65;;;;;;;28.38;54.59;101335.97;1719629;82;21561;-79
2021/08/10 08:04:48;;;;;;;8.73;3.30;;;;;;;28.44;54.71;101339.16;1739958;82;20947;-74
2021/08/10 08:07:15;;;;;;;7.35;3.80;;;;;;;28.51;54.26;101336.52;1740107;82;21157;-80
2021/08/10 08:09:44;;;;;;;4.65;3.45;;;;;;;28.53;54.21;101335.78;1740243;82;20980;-75
2021/08/10 08:12:13;;;;;;;10.45;3.60;;;;;;;28.56;54.42;101337.54;1740172;82;21022;-75
2021/08/10 08:14:39;;;;;;;8.03;3.60;;;;;;;28.61;54.21;101328.43;1739998;82;21616;-76
2021/08/10 08:17:07;;;;;;;7.75;3.60;;;;;;;28.64;54.75;101327.20;1740078;82;21056;-78
2021/08/10 08:19:34;;;;;;;7.10;3.10;;;;;;;28.71;53.59;101330.73;1740166;82;22024;-79
2021/08/10 08:22:01;;;;;;;6.08;3.60;;;;;;;28.75;51.74;101325.30;1740294;82;20979;-81
2021/08/10 08:24:27;;;;;;;4.83;3.45;;;;;;;28.83;52.73;101323.76;1740121;82;21110;-85
2021/08/10 08:26:55;;;;;;;5.65;3.25;;;;;;;28.90;51.93;101324.59;1739945;82;38074;-75
2021/08/10 08:29:24;;;;;;;4.55;3.40;;;;;;;28.95;51.75;101316.77;1740170;82;21032;-77
2021/08/10 08:31:52;;;;;;;5.78;3.15;;;;;;;28.98;51.47;101316.36;1740070;82;21852;-78
2021/08/10 08:34:19;;;;;;;6.70;3.20;;;;;;;29.00;50.02;101318.33;1719434;82;21073;-76
2021/08/10 08:36:47;;;;;;;4.92;3.10;;;;;;;29.06;49.57;101320.17;1740067;82;20948;-76
2021/08/10 08:39:13;;;;;;;6.67;3.02;;;;;;;29.08;49.83;101307.92;1740451;82;20983;-77
2021/08/10 08:41:44;;;;;;;6.60;2.90;;;;;;;29.10;48.34;101309.89;1740161;82;21051;-78
2021/08/10 08:44:13;;;;;;;5.20;2.77;;;;;;;29.15;48.45;101304.23;1720102;82;21124;-76
2021/08/10 08:46:40;;;;;;;7.25;3.02;;;;;;;29.22;49.06;101305.56;1719832;82;21541;-80
2021/08/10 08:49:07;;;;;;;6.95;2.77;;;;;;;29.36;49.16;101304.53;1656235;82;21529;-75
2021/08/10 08:51:35;;;;;;;4.72;2.55;;;;;;;29.48;48.39;101301.55;1718945;82;21629;-80
2021/08/10 08:54:02;;;;;;;3.25;2.58;;;;;;;29.58;45.70;101310.47;1739857;82;20983;-73
2021/08/10 08:56:31;;;;;;;4.22;2.90;;;;;;;29.61;46.02;101300.14;1740040;82;21170;-81
2021/08/10 08:58:59;;;;;;;5.35;2.95;;;;;;;29.65;47.58;101304.05;1739960;82;21103;-77
2021/08/10 09:01:28;;;;;;;5.17;2.80;;;;;;;29.71;47.25;101305.05;1719729;82;20944;-73
2021/08/10 09:03:55;;;;;;;3.20;2.85;;;;;;;29.73;45.70;101308.36;1739906;82;22280;-76
2021/08/10 09:06:23;;;;;;;7.95;3.15;;;;;;;29.73;45.67;101305.69;1740181;82;21569;-76
2021/08/10 09:08:55;;;;;;;7.67;2.72;;;;;;;29.77;45.05;101302.91;1740245;82;21101;-77
2021/08/10 09:11:23;;;;;;;3.72;2.42;;;;;;;29.82;44.45;101298.58;1740731;82;20952;-80
2021/08/10 09:14:03;;;;;;;4.83;2.70;;;;;;;29.86;43.66;101298.98;1740173;82;21068;-74
2021/08/10 09:16:32;;;;;;;3.45;3.00;;;;;;;29.95;44.15;101292.36;1731396;81;20987;-77
2021/08/10 09:19:00;;;;;;;4.37;2.27;;;;;;;30.05;43.36;101294.58;1723734;82;21598;-76
2021/08/10 09:21:33;;;;;;;4.75;2.72;;;;;;;30.07;43.38;101296.00;1710961;83;21551;-76
2021/08/10 09:24:01;;;;;;;10.63;2.92;;;;;;;30.06;43.26;101292.21;1709775;82;21517;-80
2021/08/10 09:26:38;;;;;;;3.52;2.30;;;;;;;30.05;43.19;101295.40;1710482;83;20944;-76
2021/08/10 09:29:06;;;;;;;16.73;3.60;;;;;;;30.13;43.79;101287.63;1710737;83;20979;-80
2021/08/10 09:31:53;;;;;;;11.50;3.33;;;;;;;30.21;45.04;101284.20;1710593;83;20956;-78
2021/08/10 09:34:25;;;;;;;8.70;3.52;;;;;;;30.35;44.91;101278.22;1714805;82;22163;-82
2021/08/10 09:36:54;;;;;;;3.22;2.90;;;;;;;30.48;45.11;101281.36;1720638;82;21008;-77
2021/08/10 09:39:33;;;;;;;8.78;3.30;;;;;;;30.60;45.37;101289.03;1710909;83;21514;-74
2021/08/10 09:42:08;;;;;;;5.67;2.85;;;;;;;30.74;46.06;101274.48;1710546;83;21535;-73
2021/08/10 09:45:04;;;;;;;12.98;2.77;;;;;;;30.87;44.76;101276.53;1710488;84;20901;-76
2021/08/10 09:47:36;;;;;;;3.58;2.60;;;;;;;30.98;44.05;101273.70;1710528;84;21593;-78
2021/08/10 09:50:07;;;;;;;6.17;2.77;;;;;;;31.03;42.87;101273.84;1710415;83;20947;-76
2021/08/10 09:52:34;;;;;;;6.22;2.67;;;;;;;31.01;43.68;101270.58;1688317;84;26592;-78
2021/08/10 09:55:12;;;;;;;5.10;2.58;;;;;;;31.08;42.84;101275.88;1709649;84;21522;-77
2021/08/10 09:57:44;;;;;;;11.40;3.12;;;;;;;31.05;42.97;101269.62;1710621;84;21063;-81
2021/08/10 10:00:11;;;;;;;6.75;2.85;;;;;;;31.18;42.40;101269.47;1710887;83;21089;-80
2021/08/10 10:02:41;;;;;;;4.70;2.55;;;;;;;31.91;40.57;101276.49;1716654;81;20885;-74
2021/08/10 10:05:09;;;;;;;3.10;2.72;;;;;;;32.36;38.21;101283.64;1695674;82;21031;-76
2021/08/10 10:07:36;;;;;;;6.95;2.60;;;;;;;32.60;37.64;101268.44;1717206;82;20904;-81
2021/08/10 10:10:05;;;;;;;8.98;3.20;;;;;;;32.84;37.35;101272.78;1711256;82;20916;-75
2021/08/10 10:12:35;;;;;;;6.75;2.62;;;;;;;33.40;36.74;101267.36;1740087;82;21443;-80
2021/08/10 10:15:04;;;;;;;4.83;2.67;;;;;;;34.22;36.23;101265.25;1719634;82;21033;-79
2021/08/10 10:17:33;;;;;;;6.87;2.60;;;;;;;34.97;35.12;101263.03;1740108;82;21036;-81
2021/08/10 10:20:01;;;;;;;5.30;2.60;;;;;;;35.82;34.31;101269.31;1740048;82;21518;-76
2021/08/10 10:22:28;;;;;;;2.98;2.45;;;;;;;35.76;32.35;101271.14;1719414;82;20998;-74
2021/08/10 10:24:57;;;;;;;9.88;3.10;;;;;;;35.03;33.20;101262.04;1741625;82;21214;-74
2021/08/10 10:27:24;;;;;;;5.95;4.12;;;;;;;34.51;34.19;101280.33;1746091;82;20976;-77
2021/08/10 10:29:57;;;;;;;4.20;3.10;;;;;;;34.21;34.89;101276.55;1746236;82;21031;-79
2021/08/10 10:32:23;;;;;;;3.83;3.17;;;;;;;34.12;35.65;101267.23;1745615;82;21038;-77
2021/08/10 10:34:50;;;;;;;5.45;3.27;;;;;;;34.15;34.94;101267.27;1746114;82;21083;-78
2021/08/10 10:37:23;;;;;;;4.85;3.37;;;;;;;34.02;35.39;101271.05;1746261;82;21876;-79
2021/08/10 10:40:03;;;;;;;3.85;3.10;;;;;;;33.65;36.00;101267.09;1746283;82;20987;-78
2021/08/10 10:42:29;;;;;;;5.60;3.70;;;;;;;33.24;36.98;101267.56;1746152;82;21054;-81
2021/08/10 10:44:56;;;;;;;4.28;3.20;;;;;;;32.94;37.79;101262.27;1746344;82;20959;-79
2021/08/10 10:47:29;;;;;;;7.17;3.17;;;;;;;32.80;38.29;101257.37;1746633;82;20984;-83
2021/08/10 10:50:03;;;;;;;5.85;3.42;;;;;;;32.72;38.73;101256.35;1746504;81;21625;-75
2021/08/10 10:52:31;;;;;;;12.30;4.17;;;;;;;32.54;39.49;101245.15;1746661;82;20849;-77
2021/08/10 10:54:58;;;;;;;12.85;4.90;;;;;;;32.49;39.86;101255.23;1746495;82;20951;-79
2021/08/10 10:57:34;;;;;;;8.88;4.50;;;;;;;32.43;39.52;101249.97;1746400;82;21564;-78
2021/08/10 11:00:12;;;;;;;5.58;3.98;;;;;;;32.44;39.99;101243.55;1746238;82;21608;-81
2021/08/10 11:02:39;;;;;;;4.87;3.55;;;;;;;32.38;40.10;101246.64;1745613;82;21147;-75
2021/08/10 11:05:22;;;;;;;8.10;4.30;;;;;;;32.34;40.04;101247.32;1725296;82;21420;-77
2021/08/10 11:07:57;;;;;;;4.75;3.67;;;;;;;32.33;40.78;101236.27;1746045;82;21438;-77
2021/08/10 11:11:19;;;;;;;4.20;3.77;;;;;;;32.42;40.23;101244.31;1725506;82;21044;-76
2021/08/10 11:13:55;;;;;;;4.80;4.15;;;;;;;32.39;40.07;101242.88;1725103;82;20999;-77
2021/08/10 11:16:33;;;;;;;5.17;3.70;;;;;;;32.26;40.37;101242.30;1725632;83;21004;-77
2021/08/10 11:19:16;;;;;;;5.30;3.87;;;;;;;32.25;40.57;101240.13;1725134;83;20976;-76
2021/08/10 11:21:43;;;;;;;4.05;3.52;;;;;;;32.20;40.98;101241.31;1721300;83;20992;-75
2021/08/10 11:24:22;;;;;;;5.00;3.58;;;;;;;32.25;40.87;101235.27;1745994;80;21014;-82
2021/08/10 11:26:49;;;;;;;5.15;3.98;;;;;;;32.38;40.83;101237.77;1740935;82;20941;-76
2021/08/10 11:29:22;;;;;;;4.58;3.95;;;;;;;32.50;40.35;101240.77;1743798;82;21268;-79
2021/08/10 11:31:51;;;;;;;6.08;3.70;;;;;;;32.55;39.78;101239.26;1738483;82;20916;-77
2021/08/10 11:34:34;;;;;;;10.25;4.25;;;;;;;32.70;40.00;101235.09;1744067;82;20924;-82
2021/08/10 11:37:20;;;;;;;5.72;3.70;;;;;;;32.78;40.21;101231.23;1743965;82;20991;-78
2021/08/10 11:40:02;;;;;;;7.28;3.60;;;;;;;32.80;39.25;101230.48;1743894;82;20938;-81